createdAt,value
2023-01-30T00:01:06.527Z,93.80
2023-01-30T00:03:34.349Z,93.80
2023-01-30T00:06:01.118Z,94.00
2023-01-30T00:08:27.873Z,93.90
2023-01-30T00:10:54.649Z,93.70
2023-01-30T00:13:21.351Z,93.70
2023-01-30T00:15:48.483Z,93.80
2023-01-30T00:18:15.189Z,93.90
2023-01-30T00:20:41.859Z,94.00
2023-01-30T00:23:08.535Z,93.50
2023-01-30T00:25:35.354Z,93.60
2023-01-30T00:28:02.345Z,93.60
2023-01-30T00:30:30.412Z,93.90
2023-01-30T00:32:58.929Z,94.20
2023-01-30T00:35:28.713Z,94.60
2023-01-30T00:37:57.544Z,94.70
2023-01-30T00:40:25.790Z,94.20
2023-01-30T00:46:03.892Z,93.90
2023-01-30T00:48:31.122Z,93.70
2023-01-30T00:50:58.136Z,93.60
2023-01-30T00:53:25.041Z,93.40
2023-01-30T00:55:53.045Z,93.70
2023-01-30T00:58:21.311Z,94.00
2023-01-30T01:00:48.878Z,93.90
2023-01-30T01:03:16.003Z,93.90
2023-01-30T01:05:43.492Z,93.80
2023-01-30T01:08:10.847Z,94.00
2023-01-30T01:10:37.803Z,94.20
2023-01-30T01:13:07.424Z,94.00
2023-01-30T01:15:35.456Z,94.00
2023-01-30T01:18:02.239Z,94.20
2023-01-30T01:20:28.979Z,94.70
2023-01-30T01:22:57.036Z,95.10
2023-01-30T01:25:25.101Z,95.50
2023-01-30T01:27:52.122Z,95.30
2023-01-30T01:30:19.010Z,94.80
2023-01-30T01:32:47.166Z,94.50
2023-01-30T01:35:14.132Z,94.40
2023-01-30T01:37:40.889Z,94.50
2023-01-30T01:40:29.198Z,94.20
2023-01-30T01:42:55.914Z,93.90
2023-01-30T01:45:24.536Z,94.00
2023-01-30T01:48:09.922Z,94.10
2023-01-30T01:50:45.245Z,93.80
2023-01-30T01:53:15.876Z,93.50
2023-01-30T01:55:46.952Z,93.70
2023-01-30T01:58:45.049Z,93.80
2023-01-30T02:01:11.785Z,93.50
2023-01-30T02:03:45.297Z,93.50
2023-01-30T02:06:14.076Z,93.20
2023-01-30T02:08:55.864Z,92.60
2023-01-30T02:11:30.397Z,92.80
2023-01-30T02:13:59.518Z,92.70
2023-01-30T02:16:26.202Z,92.70
2023-01-30T02:18:53.199Z,92.50
2023-01-30T02:21:54.784Z,92.90
2023-01-30T02:24:54.035Z,93.30
2023-01-30T02:27:51.878Z,93.80
2023-01-30T02:30:56.623Z,94.10
2023-01-30T02:33:32.237Z,94.30
2023-01-30T02:36:36.694Z,93.50
2023-01-30T02:39:06.779Z,92.90
2023-01-30T02:41:33.878Z,92.80
2023-01-30T02:44:04.997Z,93.30
2023-01-30T02:46:36.505Z,93.30
2023-01-30T02:49:14.711Z,93.20
2023-01-30T02:51:43.787Z,92.90
2023-01-30T02:54:12.695Z,92.90
2023-01-30T02:56:49.841Z,92.90
2023-01-30T02:59:38.447Z,93.00
2023-01-30T03:02:14.357Z,93.70
2023-01-30T03:05:03.072Z,93.60
2023-01-30T03:07:45.746Z,93.60
2023-01-30T03:10:15.605Z,94.10
2023-01-30T03:13:09.243Z,93.70
2023-01-30T03:15:48.143Z,93.70
2023-01-30T03:18:16.437Z,93.30
2023-01-30T03:20:43.173Z,92.60
2023-01-30T03:23:09.929Z,92.60
2023-01-30T03:25:39.597Z,92.80
2023-01-30T03:28:08.062Z,92.80
2023-01-30T03:30:35.026Z,92.90
2023-01-30T03:33:08.062Z,93.30
2023-01-30T03:35:36.763Z,93.40
2023-01-30T03:38:03.790Z,93.80
2023-01-30T03:40:30.556Z,93.60
2023-01-30T03:42:58.131Z,94.10
2023-01-30T03:45:24.945Z,94.60
2023-01-30T03:47:51.994Z,94.80
2023-01-30T03:50:18.986Z,95.00
2023-01-30T03:52:46.286Z,95.20
2023-01-30T03:55:17.111Z,96.10
2023-01-30T03:57:44.360Z,96.10
2023-01-30T04:00:11.508Z,96.20
2023-01-30T04:02:44.111Z,97.50
2023-01-30T04:05:14.354Z,98.00
2023-01-30T04:07:46.414Z,98.20
2023-01-30T04:10:15.433Z,98.30
2023-01-30T04:12:42.998Z,98.30
2023-01-30T04:15:11.304Z,98.30
2023-01-30T04:17:52.387Z,98.30
2023-01-30T04:20:31.317Z,98.30
2023-01-30T04:22:58.132Z,98.30
2023-01-30T04:25:26.642Z,98.30
2023-01-30T04:27:53.312Z,98.30
2023-01-30T04:30:38.399Z,98.30
2023-01-30T04:33:32.416Z,98.30
2023-01-30T04:36:00.644Z,98.30
2023-01-30T04:38:29.531Z,98.30
2023-01-30T04:40:57.467Z,98.30
2023-01-30T04:43:28.360Z,98.30
2023-01-30T04:46:14.197Z,98.30
2023-01-30T04:48:41.700Z,98.30
2023-01-30T04:51:09.333Z,98.30
2023-01-30T04:53:38.083Z,98.30
2023-01-30T04:56:05.290Z,98.30
2023-01-30T04:58:31.957Z,98.30
2023-01-30T05:01:23.172Z,98.20
2023-01-30T05:03:53.739Z,98.30
2023-01-30T05:06:21.293Z,98.30
2023-01-30T05:08:52.371Z,98.30
2023-01-30T05:11:20.385Z,98.30
2023-01-30T05:13:47.968Z,98.00
2023-01-30T05:16:15.706Z,98.10
2023-01-30T05:18:43.117Z,98.30
2023-01-30T05:21:13.212Z,98.00
2023-01-30T05:23:40.257Z,97.90
2023-01-30T05:26:07.722Z,98.00
2023-01-30T05:28:34.827Z,98.10
2023-01-30T05:31:03.421Z,97.90
2023-01-30T05:33:30.530Z,98.30
2023-01-30T05:35:58.623Z,98.30
2023-01-30T05:38:26.174Z,98.30
2023-01-30T05:41:01.134Z,98.30
2023-01-30T05:43:28.436Z,98.30
2023-01-30T05:45:56.782Z,98.30
2023-01-30T05:48:24.717Z,98.30
2023-01-30T05:50:56.878Z,98.30
2023-01-30T05:53:25.227Z,98.30
2023-01-30T05:55:56.427Z,98.30
2023-01-30T05:58:23.773Z,98.30
2023-01-30T06:00:50.976Z,98.30
2023-01-30T06:03:17.865Z,98.30
2023-01-30T06:05:44.787Z,98.30
2023-01-30T06:08:11.943Z,98.30
2023-01-30T06:10:38.621Z,98.30
2023-01-30T06:13:05.290Z,98.30
2023-01-30T06:15:32.603Z,98.30
2023-01-30T06:17:59.285Z,98.30
2023-01-30T06:20:26.011Z,98.30
2023-01-30T06:22:52.676Z,98.30
2023-01-30T06:25:19.899Z,98.30
2023-01-30T06:27:47.224Z,98.30
2023-01-30T06:30:14.169Z,98.30
2023-01-30T06:32:41.530Z,98.30
2023-01-30T06:35:08.771Z,98.30
2023-01-30T06:37:35.615Z,98.30
2023-01-30T06:40:02.311Z,98.30
2023-01-30T06:42:29.032Z,98.30
2023-01-30T06:44:55.676Z,98.30
2023-01-30T06:47:22.437Z,98.30
2023-01-30T06:49:49.242Z,98.30
2023-01-30T06:52:15.988Z,98.30
2023-01-30T06:54:42.657Z,98.30
2023-01-30T06:57:09.665Z,98.30
2023-01-30T06:59:36.500Z,98.30
2023-01-30T07:02:03.199Z,98.30
2023-01-30T07:04:30.032Z,98.30
2023-01-30T07:06:57.125Z,98.30
2023-01-30T07:09:26.662Z,98.30
2023-01-30T07:11:53.401Z,98.30
2023-01-30T07:14:20.220Z,98.30
2023-01-30T07:16:47.624Z,98.30
2023-01-30T07:19:14.402Z,98.30
2023-01-30T07:21:43.179Z,98.30
2023-01-30T07:24:09.902Z,98.30
2023-01-30T07:26:36.648Z,98.30
2023-01-30T07:29:03.744Z,98.30
2023-01-30T07:31:30.540Z,98.30
2023-01-30T07:33:57.330Z,98.30
2023-01-30T07:36:27.057Z,98.30
2023-01-30T07:38:54.133Z,98.30
2023-01-30T07:41:20.780Z,98.30
2023-01-30T07:43:48.912Z,98.30
2023-01-30T07:46:15.752Z,98.30
2023-01-30T07:48:44.943Z,98.30
2023-01-30T07:51:11.755Z,98.30
2023-01-30T07:53:38.817Z,98.30
2023-01-30T07:56:10.035Z,98.30
2023-01-30T07:58:36.972Z,98.30
2023-01-30T08:01:03.921Z,98.30
2023-01-30T08:03:30.781Z,98.30
2023-01-30T08:05:57.529Z,98.30
2023-01-30T08:08:24.734Z,98.30
2023-01-30T08:10:51.482Z,98.30
2023-01-30T08:13:19.008Z,98.30
2023-01-30T08:15:45.671Z,98.30
2023-01-30T08:18:12.532Z,98.30
2023-01-30T08:20:39.342Z,98.30
2023-01-30T08:23:06.136Z,98.30
2023-01-30T08:25:33.185Z,98.30
2023-01-30T08:28:00.544Z,98.30
2023-01-30T08:30:28.071Z,98.30
2023-01-30T08:32:55.074Z,98.30
2023-01-30T08:35:21.744Z,98.30
2023-01-30T08:37:48.542Z,98.30
2023-01-30T08:40:15.497Z,98.30
2023-01-30T08:42:45.718Z,98.30
2023-01-30T08:45:12.896Z,98.30
2023-01-30T08:47:39.606Z,98.30
2023-01-30T08:50:06.509Z,98.30
2023-01-30T08:52:33.670Z,98.30
2023-01-30T08:55:00.376Z,98.30
2023-01-30T08:57:27.137Z,98.30
2023-01-30T08:59:53.880Z,98.30
2023-01-30T09:02:20.726Z,98.30
2023-01-30T09:04:47.450Z,98.30
2023-01-30T09:07:14.091Z,98.30
2023-01-30T09:09:40.731Z,98.30
2023-01-30T09:12:07.448Z,98.30
2023-01-30T09:14:34.070Z,98.30
2023-01-30T09:17:00.865Z,98.30
2023-01-30T09:19:28.400Z,98.30
2023-01-30T09:21:55.904Z,98.30
2023-01-30T09:24:26.407Z,98.30
2023-01-30T09:26:53.893Z,98.30
2023-01-30T09:29:20.619Z,98.30
2023-01-30T09:31:47.379Z,98.30
2023-01-30T09:34:14.055Z,98.30
2023-01-30T09:36:40.762Z,98.30
2023-01-30T09:39:07.769Z,98.30
2023-01-30T09:42:04.793Z,98.30
2023-01-30T09:45:06.975Z,98.30
2023-01-30T09:47:51.025Z,98.30
2023-01-30T09:50:24.055Z,98.30
2023-01-30T09:53:25.499Z,98.30
2023-01-30T09:55:52.566Z,98.30
2023-01-30T09:58:23.936Z,98.30
2023-01-30T10:01:03.186Z,98.30
2023-01-30T10:03:57.638Z,98.30
2023-01-30T10:06:24.280Z,98.30
2023-01-30T10:08:59.220Z,98.30
2023-01-30T10:12:04.805Z,98.30
2023-01-30T10:14:49.690Z,98.30
2023-01-30T10:17:35.238Z,98.30
2023-01-30T10:20:16.416Z,98.30
2023-01-30T10:22:50.076Z,98.30
2023-01-30T10:25:32.209Z,98.30
2023-01-30T10:28:22.536Z,98.30
2023-01-30T10:30:53.430Z,98.30
2023-01-30T10:33:23.085Z,98.30
2023-01-30T10:36:11.229Z,98.30
2023-01-30T10:38:46.633Z,98.30
2023-01-30T10:41:34.769Z,98.30
2023-01-30T10:44:10.194Z,98.30
2023-01-30T10:47:04.076Z,98.30
2023-01-30T10:49:53.133Z,98.30
2023-01-30T10:52:55.340Z,98.30
2023-01-30T10:55:41.995Z,98.30
2023-01-30T10:58:26.425Z,98.30
2023-01-30T11:00:59.145Z,98.30
2023-01-30T11:03:28.477Z,98.30
2023-01-30T11:06:17.185Z,98.30
2023-01-30T11:08:44.069Z,98.30
2023-01-30T11:11:28.076Z,98.30
2023-01-30T11:14:06.315Z,98.30
2023-01-30T11:16:43.332Z,98.30
2023-01-30T11:19:20.911Z,98.30
2023-01-30T11:21:51.695Z,98.30
2023-01-30T11:24:28.524Z,98.30
2023-01-30T11:26:56.658Z,98.30
2023-01-30T11:29:32.639Z,98.30
2023-01-30T11:32:12.507Z,98.30
2023-01-30T11:34:41.672Z,98.30
2023-01-30T11:37:25.362Z,98.30
2023-01-30T11:39:52.963Z,98.30
2023-01-30T11:42:24.098Z,98.30
2023-01-30T11:45:10.856Z,98.30
2023-01-30T11:47:59.693Z,98.30
2023-01-30T11:50:41.714Z,98.30
2023-01-30T11:53:36.093Z,98.30
2023-01-30T11:56:13.188Z,98.30
2023-01-30T11:58:41.076Z,98.30
2023-01-30T12:01:10.898Z,98.30
2023-01-30T12:03:50.272Z,98.30
2023-01-30T12:06:32.899Z,98.30
2023-01-30T12:08:59.742Z,98.30
2023-01-30T12:11:42.073Z,98.30
2023-01-30T12:14:13.514Z,98.30
2023-01-30T12:17:00.938Z,98.30
2023-01-30T12:20:00.051Z,98.30
2023-01-30T12:22:45.323Z,98.30
2023-01-30T12:25:23.840Z,98.30
2023-01-30T12:28:02.485Z,98.30
2023-01-30T12:33:06.480Z,98.30
2023-01-30T12:36:00.286Z,98.30
2023-01-30T12:38:35.958Z,98.30
2023-01-30T12:41:25.448Z,98.30
2023-01-30T12:43:55.599Z,98.30
2023-01-30T12:46:56.105Z,98.30
2023-01-30T12:49:47.111Z,98.30
2023-01-30T12:52:25.494Z,98.30
2023-01-30T12:55:19.488Z,98.30
2023-01-30T12:58:08.057Z,98.30
2023-01-30T13:00:56.026Z,98.30
2023-01-30T13:03:43.625Z,98.30
2023-01-30T13:06:46.757Z,98.30
2023-01-30T13:09:22.197Z,98.30
2023-01-30T13:11:59.151Z,98.30
2023-01-30T13:14:56.539Z,98.30
2023-01-30T13:17:42.118Z,98.30
2023-01-30T13:20:20.835Z,98.30
2023-01-30T13:23:00.617Z,98.30
2023-01-30T13:25:44.754Z,98.30
2023-01-30T13:28:20.289Z,98.30
2023-01-30T13:30:49.570Z,98.30
2023-01-30T13:33:22.228Z,98.30
2023-01-30T13:35:51.862Z,98.30
2023-01-30T13:38:23.970Z,98.30
2023-01-30T13:40:54.832Z,98.30
2023-01-30T13:43:34.524Z,98.30
2023-01-30T13:46:06.973Z,98.30
2023-01-30T13:48:52.456Z,98.30
2023-01-30T13:51:28.108Z,98.30
2023-01-30T13:54:20.029Z,98.30
2023-01-30T13:56:57.260Z,98.30
2023-01-30T13:59:42.122Z,98.30
2023-01-30T14:02:14.960Z,98.30
2023-01-30T14:04:42.083Z,98.30
2023-01-30T14:07:23.061Z,98.30
2023-01-30T14:10:14.043Z,98.30
2023-01-30T14:12:42.556Z,98.30
2023-01-30T14:15:15.217Z,98.30
2023-01-30T14:17:59.456Z,98.30
2023-01-30T14:20:28.599Z,98.30
2023-01-30T14:22:57.889Z,98.30
2023-01-30T14:25:30.616Z,98.30
2023-01-30T14:28:00.423Z,98.30
2023-01-30T14:30:40.974Z,98.30
2023-01-30T14:33:31.846Z,98.30
2023-01-30T14:35:58.568Z,98.30
2023-01-30T14:38:26.890Z,98.30
2023-01-30T14:41:00.095Z,98.30
2023-01-30T14:43:33.896Z,98.30
2023-01-30T14:46:17.037Z,98.30
2023-01-30T14:48:55.273Z,98.30
2023-01-30T14:51:43.476Z,98.30
2023-01-30T14:54:13.537Z,98.30
2023-01-30T14:57:01.168Z,98.30
2023-01-30T14:59:27.872Z,98.30
2023-01-30T15:02:13.017Z,98.30
2023-01-30T15:04:44.866Z,98.30
2023-01-30T15:07:36.165Z,98.30
2023-01-30T15:10:11.698Z,98.30
2023-01-30T15:13:20.388Z,98.30
2023-01-30T15:15:47.012Z,98.30
2023-01-30T15:18:35.319Z,98.30
2023-01-30T15:21:37.303Z,98.30
2023-01-30T15:24:34.710Z,98.30
2023-01-30T15:27:33.926Z,98.30
2023-01-30T15:30:32.656Z,98.30
2023-01-30T15:33:29.240Z,98.30
2023-01-30T15:35:57.969Z,98.30
2023-01-30T15:38:29.560Z,98.30
2023-01-30T15:41:00.613Z,98.30
2023-01-30T15:43:42.541Z,98.30
2023-01-30T15:46:13.423Z,98.30
2023-01-30T15:49:06.846Z,98.30
2023-01-30T15:51:34.850Z,98.30
2023-01-30T15:54:08.611Z,98.30
2023-01-30T15:56:35.464Z,98.30
2023-01-30T15:59:03.052Z,98.30
2023-01-30T16:01:30.701Z,98.30
2023-01-30T16:04:00.492Z,98.30
2023-01-30T16:06:32.932Z,98.30
2023-01-30T16:09:06.465Z,98.30
2023-01-30T16:11:39.104Z,98.30
2023-01-30T16:14:09.900Z,98.30
2023-01-30T16:16:37.236Z,98.30
2023-01-30T16:19:07.779Z,98.30
2023-01-30T16:21:42.336Z,98.30
2023-01-30T16:24:17.819Z,98.30
2023-01-30T16:27:00.073Z,98.30
2023-01-30T16:29:30.541Z,98.30
2023-01-30T16:31:57.830Z,98.30
2023-01-30T16:34:35.818Z,98.30
2023-01-30T16:37:20.853Z,98.30
2023-01-30T16:40:14.567Z,98.30
2023-01-30T16:42:54.835Z,98.30
2023-01-30T16:45:47.406Z,98.30
2023-01-30T16:48:17.085Z,98.30
2023-01-30T16:50:49.446Z,98.30
2023-01-30T16:53:23.348Z,98.30
2023-01-30T16:56:04.992Z,98.30
2023-01-30T16:58:34.913Z,98.30
2023-01-30T17:01:04.886Z,98.30
2023-01-30T17:03:56.800Z,98.30
2023-01-30T17:06:36.819Z,98.30
2023-01-30T17:09:06.729Z,98.30
2023-01-30T17:11:41.359Z,98.30
2023-01-30T17:14:30.502Z,98.30
2023-01-30T17:17:03.708Z,98.30
2023-01-30T17:19:30.643Z,98.30
2023-01-30T17:21:58.987Z,98.30
2023-01-30T17:24:26.725Z,98.30
2023-01-30T17:27:02.437Z,98.30
2023-01-30T17:29:46.785Z,98.30
2023-01-30T17:32:15.780Z,98.30
2023-01-30T17:34:42.632Z,98.30
2023-01-30T17:37:18.440Z,98.30
2023-01-30T17:39:45.416Z,98.30
2023-01-30T17:42:13.166Z,98.30
2023-01-30T17:44:40.529Z,98.30
2023-01-30T17:47:09.644Z,98.30
2023-01-30T17:49:36.327Z,98.30
2023-01-30T17:52:03.044Z,98.30
2023-01-30T17:54:32.526Z,98.30
2023-01-30T17:57:07.210Z,98.30
2023-01-30T17:59:33.904Z,98.30
2023-01-30T18:02:00.743Z,98.30
2023-01-30T18:04:27.564Z,98.30
2023-01-30T18:07:04.318Z,98.30
2023-01-30T18:09:31.731Z,98.30
2023-01-30T18:11:58.385Z,98.30
2023-01-30T18:14:25.076Z,98.30
2023-01-30T18:16:51.876Z,98.30
2023-01-30T18:19:25.037Z,98.30
2023-01-30T18:21:51.930Z,98.30
2023-01-30T18:24:19.041Z,98.30
2023-01-30T18:26:46.863Z,98.30
2023-01-30T18:29:13.919Z,98.30
2023-01-30T18:31:40.806Z,98.30
2023-01-30T18:34:09.608Z,98.30
2023-01-30T18:36:36.765Z,98.30
2023-01-30T18:39:04.711Z,98.30
2023-01-30T18:41:31.986Z,98.30
2023-01-30T18:44:01.222Z,98.30
2023-01-30T18:46:28.913Z,98.30
2023-01-30T18:48:56.475Z,98.30
2023-01-30T18:51:25.864Z,98.30
2023-01-30T18:53:53.855Z,98.30
2023-01-30T18:56:23.702Z,98.30
2023-01-30T18:58:52.327Z,98.30
2023-01-30T19:01:22.420Z,98.30
2023-01-30T19:03:49.584Z,98.30
2023-01-30T19:06:18.265Z,98.30
2023-01-30T19:08:45.522Z,98.30
2023-01-30T19:11:33.691Z,98.30
2023-01-30T19:14:00.819Z,98.30
2023-01-30T19:16:28.768Z,98.30
2023-01-30T19:18:56.194Z,98.30
2023-01-30T19:21:24.621Z,98.30
2023-01-30T19:23:51.653Z,98.30
2023-01-30T19:26:20.373Z,98.30
2023-01-30T19:28:47.497Z,98.30
2023-01-30T19:31:19.385Z,98.30
2023-01-30T19:33:48.308Z,98.30
2023-01-30T19:36:16.897Z,98.30
2023-01-30T19:38:44.746Z,98.30
2023-01-30T19:41:16.473Z,98.30
2023-01-30T19:43:43.728Z,98.30
2023-01-30T19:46:11.693Z,98.30
2023-01-30T19:48:39.541Z,98.30
2023-01-30T19:51:14.778Z,98.30
2023-01-30T19:53:43.178Z,98.30
2023-01-30T19:56:11.821Z,98.30
2023-01-30T19:58:40.084Z,98.30
2023-01-30T20:01:12.294Z,98.30
2023-01-30T20:03:40.844Z,98.30
2023-01-30T20:06:07.940Z,98.30
2023-01-30T20:08:36.598Z,98.30
2023-01-30T20:11:06.241Z,98.30
2023-01-30T20:13:38.711Z,98.30
2023-01-30T20:16:14.552Z,98.30
2023-01-30T20:18:41.735Z,98.30
2023-01-30T20:21:10.320Z,98.30
2023-01-30T20:23:37.620Z,98.30
2023-01-30T20:26:09.069Z,98.30
2023-01-30T20:28:37.710Z,98.30
2023-01-30T20:31:16.638Z,98.20
2023-01-30T20:33:43.431Z,98.00
2023-01-30T20:36:12.957Z,98.10
2023-01-30T20:38:41.565Z,98.30
2023-01-30T20:41:09.571Z,98.30
2023-01-30T20:43:38.470Z,98.00
2023-01-30T20:46:08.477Z,97.90
2023-01-30T20:48:35.852Z,98.00
2023-01-30T20:51:25.505Z,97.90
2023-01-30T20:53:55.125Z,98.30
2023-01-30T20:56:23.132Z,98.30
2023-01-30T20:58:50.282Z,98.30
2023-01-30T21:01:19.452Z,98.30
2023-01-30T21:03:49.322Z,98.30
2023-01-30T21:06:41.196Z,98.30
2023-01-30T21:09:06.300Z,98.30
2023-01-30T21:11:33.502Z,98.30
2023-01-30T21:14:00.797Z,98.30
2023-01-30T21:16:30.198Z,98.30
2023-01-30T21:19:01.729Z,98.30
2023-01-30T21:21:42.654Z,98.30
2023-01-30T21:24:13.274Z,98.30
2023-01-30T21:26:44.451Z,98.30
2023-01-30T21:29:12.185Z,98.30
2023-01-30T21:31:40.326Z,98.30
2023-01-30T21:34:08.020Z,98.30
2023-01-30T21:36:34.818Z,98.30
2023-01-30T21:39:20.409Z,98.30
2023-01-30T21:42:05.704Z,98.30
2023-01-30T21:44:37.091Z,98.30
2023-01-30T21:47:05.604Z,98.30
2023-01-30T21:49:33.044Z,98.30
2023-01-30T21:52:00.053Z,98.30
2023-01-30T21:54:26.792Z,98.30
2023-01-30T21:56:53.527Z,98.30
2023-01-30T21:59:20.403Z,98.30
2023-01-30T22:01:47.132Z,98.30
2023-01-30T22:04:15.556Z,98.30
2023-01-30T22:06:42.910Z,98.30
2023-01-30T22:09:13.283Z,98.30
2023-01-30T22:11:40.041Z,98.30
2023-01-30T22:14:06.701Z,98.30
2023-01-30T22:16:34.024Z,98.30
2023-01-30T22:19:03.063Z,98.30
2023-01-30T22:21:36.183Z,98.30
2023-01-30T22:24:05.392Z,98.30
2023-01-30T22:26:32.330Z,98.30
2023-01-30T22:29:00.630Z,98.30
2023-01-30T22:31:34.483Z,98.30
2023-01-30T22:34:02.718Z,98.30
2023-01-30T22:36:31.695Z,98.30
2023-01-30T22:38:58.453Z,98.30
2023-01-30T22:41:26.674Z,98.30
2023-01-30T22:43:58.117Z,98.30
2023-01-30T22:46:26.917Z,98.30
2023-01-30T22:48:54.774Z,98.30
2023-01-30T22:51:26.996Z,98.30
2023-01-30T22:54:05.743Z,98.30
2023-01-30T22:56:38.485Z,98.30
2023-01-30T22:59:05.995Z,98.30
2023-01-30T23:01:38.338Z,98.30
2023-01-30T23:04:12.986Z,98.30
2023-01-30T23:06:40.575Z,98.30
2023-01-30T23:09:09.720Z,98.30
2023-01-30T23:11:40.527Z,98.30
2023-01-30T23:14:13.657Z,98.30
2023-01-30T23:16:43.240Z,98.30
2023-01-30T23:19:12.123Z,98.30
2023-01-30T23:21:45.386Z,98.30
2023-01-30T23:24:15.577Z,98.30
2023-01-30T23:26:45.445Z,98.30
2023-01-30T23:29:15.523Z,98.30
2023-01-30T23:31:44.350Z,98.30
2023-01-30T23:34:13.480Z,98.30
2023-01-30T23:36:40.216Z,98.30
2023-01-30T23:39:07.191Z,98.30
2023-01-30T23:41:36.436Z,98.30
2023-01-30T23:44:03.604Z,98.30
2023-01-30T23:46:33.314Z,98.30
2023-01-30T23:49:11.626Z,98.30
2023-01-30T23:51:40.738Z,98.30
2023-01-30T23:54:08.174Z,98.30
2023-01-30T23:56:37.551Z,98.30
2023-01-30T23:59:04.591Z,98.30
